Time;durP1;ratioP1;P1;durP2;ratioP2;P2;SDS_P1;SDS_P2;PMS_P1;PMS_P2;Temp;Humidity;BMP_temperature;BMP_pressure;BME280_temperature;BME280_humidity;BME280_pressure;Samples;Min_cycle;Max_cycle;Signal;HPM_P1;HPM_P2
2023/08/09 00:04:21;;;;;;;4.00;2.65;;;18.80;92.50;;;;;;10354670;28;20895;-65
2023/08/09 00:09:22;;;;;;;4.05;2.70;;;18.80;92.50;;;;;;10354215;28;20410;-65
2023/08/09 00:14:22;;;;;;;3.97;2.80;;;18.80;92.40;;;;;;10356317;28;20409;-65
2023/08/09 00:19:24;;;;;;;4.30;2.73;;;18.70;92.40;;;;;;10356698;28;20417;-65
2023/08/09 00:24:25;;;;;;;3.05;2.58;;;18.70;92.40;;;;;;10359382;28;20411;-65
2023/08/09 00:29:26;;;;;;;4.32;2.97;;;18.70;92.40;;;;;;10356267;28;20414;-65
2023/08/09 00:34:27;;;;;;;3.72;2.80;;;18.70;92.50;;;;;;10357195;28;20407;-65
2023/08/09 00:39:28;;;;;;;4.68;2.83;;;18.70;92.50;;;;;;10357248;28;20452;-66
2023/08/09 00:44:28;;;;;;;5.50;3.27;;;18.70;92.50;;;;;;10359706;28;20509;-65
2023/08/09 00:49:29;;;;;;;4.90;3.37;;;18.70;92.50;;;;;;10355717;28;20412;-65
2023/08/09 00:54:30;;;;;;;4.67;3.43;;;18.60;92.40;;;;;;10356230;28;20400;-65
2023/08/09 00:59:30;;;;;;;4.87;3.43;;;18.60;92.50;;;;;;10355915;28;20404;-65
2023/08/09 01:04:31;;;;;;;4.47;3.45;;;18.60;92.50;;;;;;10359760;28;20412;-65
2023/08/09 01:09:41;;;;;;;4.43;3.50;;;18.60;92.50;;;;;;10357378;28;20412;-65
2023/08/09 01:14:46;;;;;;;4.93;3.50;;;18.50;92.50;;;;;;10355301;28;20401;-65
2023/08/09 01:19:49;;;;;;;5.40;3.72;;;18.50;92.60;;;;;;10353718;28;20501;-65
2023/08/09 01:24:50;;;;;;;4.40;3.63;;;18.50;92.50;;;;;;10352177;28;20435;-65
2023/08/09 01:29:51;;;;;;;5.18;4.00;;;18.50;92.60;;;;;;10355631;28;20792;-65
2023/08/09 01:34:52;;;;;;;4.27;3.73;;;18.50;92.60;;;;;;10348311;28;20416;-65
2023/08/09 01:39:56;;;;;;;4.38;3.70;;;18.40;92.60;;;;;;10357759;28;20432;-65
2023/08/09 01:44:58;;;;;;;5.40;4.10;;;18.70;92.60;;;;;;10356849;28;20415;-64
2023/08/09 01:49:58;;;;;;;4.70;3.90;;;18.40;92.60;;;;;;10338475;28;20412;-65
2023/08/09 01:54:59;;;;;;;4.40;3.70;;;18.40;92.60;;;;;;10355345;28;20408;-65
2023/08/09 01:59:59;;;;;;;5.10;3.85;;;18.40;92.60;;;;;;10356730;28;20407;-65
2023/08/09 02:05:00;;;;;;;5.47;4.03;;;18.40;92.60;;;;;;10339207;28;20467;-65
2023/08/09 02:10:01;;;;;;;4.97;4.28;;;18.40;92.60;;;;;;10355487;28;20400;-65
2023/08/09 02:15:01;;;;;;;5.13;3.95;;;18.30;92.60;;;;;;10355882;28;20412;-65
2023/08/09 02:20:04;;;;;;;4.90;4.17;;;18.30;92.60;;;;;;10355177;28;20409;-65
2023/08/09 02:25:07;;;;;;;4.70;4.20;;;18.30;92.60;;;;;;10353967;28;20919;-65
2023/08/09 02:30:09;;;;;;;4.30;3.90;;;18.30;92.60;;;;;;10356944;28;20501;-65
2023/08/09 02:35:10;;;;;;;4.40;3.90;;;18.30;92.70;;;;;;10356138;28;20408;-65
2023/08/09 02:40:11;;;;;;;4.88;4.25;;;18.30;92.70;;;;;;10351022;28;20443;-65
2023/08/09 02:45:12;;;;;;;4.70;4.13;;;18.20;92.60;;;;;;10357732;28;20495;-65
2023/08/09 02:50:13;;;;;;;4.70;4.20;;;18.20;92.90;;;;;;10354225;28;20512;-65
2023/08/09 02:55:14;;;;;;;4.47;4.00;;;18.20;92.60;;;;;;10355274;28;21088;-65
2023/08/09 03:00:17;;;;;;;4.80;4.40;;;18.10;92.60;;;;;;10364004;28;20396;-65
2023/08/09 03:05:18;;;;;;;4.37;3.97;;;18.20;92.60;;;;;;10362630;28;20488;-65
2023/08/09 03:10:19;;;;;;;4.50;4.10;;;18.10;92.60;;;;;;10360521;28;21043;-65
2023/08/09 03:15:21;;;;;;;4.63;4.13;;;18.10;92.60;;;;;;10350992;28;20455;-65
2023/08/09 03:20:22;;;;;;;5.30;4.10;;;18.10;92.60;;;;;;10362604;28;20492;-65
2023/08/09 03:25:23;;;;;;;4.50;4.10;;;18.10;92.60;;;;;;10358089;28;20496;-65
2023/08/09 03:30:23;;;;;;;4.45;4.05;;;18.10;92.60;;;;;;10358133;28;20725;-65
2023/08/09 03:35:24;;;;;;;4.55;4.15;;;18.10;92.60;;;;;;10358289;28;20410;-65
2023/08/09 03:40:25;;;;;;;4.43;4.03;;;18.10;92.60;;;;;;10358228;28;20399;-65
2023/08/09 03:45:25;;;;;;;4.40;4.00;;;18.00;92.60;;;;;;10340327;28;20423;-64
2023/08/09 03:50:27;;;;;;;4.53;4.13;;;18.00;92.60;;;;;;10357068;28;20411;-64
2023/08/09 03:55:27;;;;;;;4.32;3.90;;;18.00;92.60;;;;;;10360221;28;20921;-64
2023/08/09 04:00:28;;;;;;;4.50;4.10;;;18.00;92.60;;;;;;10357920;28;20799;-65
2023/08/09 04:05:29;;;;;;;4.47;4.07;;;18.00;92.60;;;;;;10357591;28;20459;-64
2023/08/09 04:10:30;;;;;;;4.33;3.93;;;18.00;92.60;;;;;;10355976;28;20416;-64
2023/08/09 04:15:30;;;;;;;4.53;4.13;;;17.90;92.60;;;;;;10360353;28;20421;-64
2023/08/09 04:20:31;;;;;;;5.17;4.57;;;17.90;92.60;;;;;;10355172;28;20400;-63
2023/08/09 04:25:32;;;;;;;4.63;4.00;;;17.90;92.80;;;;;;10338813;28;20678;-63
2023/08/09 04:30:33;;;;;;;4.60;4.20;;;17.90;93.10;;;;;;10354059;28;20404;-64
2023/08/09 04:35:33;;;;;;;4.53;3.88;;;17.90;92.80;;;;;;10353017;28;20492;-69
2023/08/09 04:40:37;;;;;;;4.10;3.70;;;17.90;92.80;;;;;;10352689;28;20416;-64
2023/08/09 04:45:38;;;;;;;4.30;3.90;;;17.80;92.70;;;;;;10352228;28;20916;-64
2023/08/09 04:50:39;;;;;;;4.22;3.83;;;17.80;92.70;;;;;;10354428;28;20409;-64
2023/08/09 04:55:40;;;;;;;4.00;3.60;;;17.80;92.60;;;;;;10354610;28;20426;-64
2023/08/09 05:00:40;;;;;;;4.23;3.83;;;17.80;92.60;;;;;;10350632;28;20791;-65
2023/08/09 05:05:41;;;;;;;3.70;3.40;;;17.80;92.60;;;;;;10354929;28;20836;-64
2023/08/09 05:10:42;;;;;;;4.15;3.75;;;17.80;92.60;;;;;;10354291;28;20392;-64
2023/08/09 05:15:42;;;;;;;3.97;3.67;;;17.80;92.60;;;;;;10357045;28;20429;-63
2023/08/09 05:20:43;;;;;;;3.90;3.60;;;17.80;92.60;;;;;;10357998;28;20919;-64
2023/08/09 05:25:52;;;;;;;3.90;3.60;;;17.80;92.60;;;;;;10356897;28;20412;-64
2023/08/09 05:30:52;;;;;;;3.87;3.53;;;17.80;92.70;;;;;;10351905;28;20404;-63
2023/08/09 05:35:53;;;;;;;3.88;3.58;;;17.80;92.70;;;;;;10357457;28;20432;-64
2023/08/09 05:40:55;;;;;;;3.80;3.50;;;17.80;92.70;;;;;;10358422;28;20408;-63
2023/08/09 05:45:55;;;;;;;4.10;3.70;;;17.80;92.70;;;;;;10355615;28;20781;-64
2023/08/09 05:50:56;;;;;;;3.70;3.40;;;17.80;92.80;;;;;;10354592;28;20401;-64
2023/08/09 05:55:57;;;;;;;4.17;3.80;;;17.80;92.80;;;;;;10355871;28;20415;-64
2023/08/09 06:00:58;;;;;;;4.20;3.80;;;17.80;92.80;;;;;;10353961;28;20404;-64
2023/08/09 06:06:00;;;;;;;4.07;3.67;;;17.80;92.90;;;;;;10342642;28;20424;-64
2023/08/09 06:11:01;;;;;;;4.18;3.78;;;17.80;92.90;;;;;;10353358;28;21025;-64
2023/08/09 06:16:01;;;;;;;4.37;3.97;;;17.90;92.90;;;;;;10361044;28;20511;-63
2023/08/09 06:21:04;;;;;;;4.00;3.63;;;17.90;92.90;;;;;;10357811;28;20401;-63
2023/08/09 06:26:04;;;;;;;4.23;3.83;;;17.90;92.90;;;;;;10357376;28;20404;-63
2023/08/09 06:31:05;;;;;;;4.43;3.83;;;17.90;92.90;;;;;;10336006;28;20854;-63
2023/08/09 06:36:06;;;;;;;4.38;3.97;;;17.90;92.90;;;;;;10356808;28;20421;-62
2023/08/09 06:41:07;;;;;;;4.20;3.80;;;17.90;92.90;;;;;;10352004;28;20458;-63
2023/08/09 06:46:07;;;;;;;4.17;3.77;;;17.90;92.90;;;;;;10353848;28;20946;-64
2023/08/09 06:51:08;;;;;;;4.43;4.03;;;17.90;92.90;;;;;;10353768;28;20463;-63
2023/08/09 06:56:09;;;;;;;3.83;3.53;;;18.00;92.90;;;;;;10356180;28;20420;-63
2023/08/09 07:01:09;;;;;;;4.32;3.92;;;18.70;93.10;;;;;;10353201;28;20401;-63
2023/08/09 07:06:10;;;;;;;4.23;3.83;;;18.00;92.90;;;;;;10357360;28;20912;-63
2023/08/09 07:11:10;;;;;;;4.30;3.87;;;18.00;92.90;;;;;;10363300;28;20455;-63
2023/08/09 07:16:11;;;;;;;4.50;4.00;;;18.00;92.90;;;;;;10356590;28;20914;-64
2023/08/09 07:21:12;;;;;;;4.40;4.00;;;18.00;92.90;;;;;;10350952;28;20403;-63
2023/08/09 07:26:12;;;;;;;4.28;3.88;;;18.00;92.90;;;;;;10348906;28;20425;-63
2023/08/09 07:31:21;;;;;;;5.00;4.53;;;17.10;92.70;;;;;;10355580;28;20435;-63
2023/08/09 07:36:21;;;;;;;4.67;4.20;;;18.10;93.00;;;;;;10359342;28;20421;-63
2023/08/09 07:41:22;;;;;;;5.28;4.78;;;18.10;93.00;;;;;;10359437;28;20418;-64
2023/08/09 07:46:22;;;;;;;5.10;4.60;;;18.10;93.00;;;;;;10360786;28;20464;-63
2023/08/09 07:51:23;;;;;;;5.27;4.77;;;18.10;93.00;;;;;;10355931;28;20491;-64
2023/08/09 07:56:24;;;;;;;5.50;4.77;;;18.20;93.00;;;;;;10358677;28;20667;-63
2023/08/09 08:01:25;;;;;;;5.30;4.68;;;18.20;93.10;;;;;;10357223;28;20411;-63
2023/08/09 08:06:27;;;;;;;5.03;4.53;;;18.20;93.00;;;;;;10361153;28;20797;-64
2023/08/09 08:11:27;;;;;;;5.28;4.55;;;18.30;93.10;;;;;;10360530;28;20407;-63
2023/08/09 08:16:28;;;;;;;5.03;4.53;;;18.30;93.10;;;;;;10362898;28;20470;-63
2023/08/09 08:21:28;;;;;;;5.20;4.67;;;18.30;93.10;;;;;;10351453;28;20406;-63
2023/08/09 08:26:29;;;;;;;5.30;4.73;;;18.30;93.20;;;;;;10357857;28;20413;-63
2023/08/09 08:31:30;;;;;;;5.07;4.55;;;18.40;93.10;;;;;;10352517;28;20769;-64
2023/08/09 08:36:30;;;;;;;5.88;5.00;;;18.40;93.20;;;;;;10357254;28;20451;-63
2023/08/09 08:41:31;;;;;;;5.10;4.40;;;18.40;93.20;;;;;;10360750;28;20420;-63
2023/08/09 08:46:33;;;;;;;5.27;4.50;;;18.50;93.20;;;;;;10361910;28;20422;-64
2023/08/09 08:51:35;;;;;;;4.93;4.43;;;18.50;93.30;;;;;;10362285;28;20444;-64
2023/08/09 08:56:35;;;;;;;5.60;4.57;;;18.50;93.30;;;;;;10353092;28;20782;-62
2023/08/09 09:01:36;;;;;;;5.00;4.50;;;18.60;93.20;;;;;;10345377;28;20474;-63
2023/08/09 09:06:37;;;;;;;5.07;4.30;;;18.70;93.20;;;;;;10360030;28;20409;-63
2023/08/09 09:11:39;;;;;;;4.78;4.28;;;18.80;93.10;;;;;;10357802;28;20924;-64
2023/08/09 09:16:41;;;;;;;4.88;4.35;;;18.80;93.10;;;;;;10343286;28;20493;-64
2023/08/09 09:21:42;;;;;;;4.20;3.80;;;18.80;93.00;;;;;;10356349;28;20429;-63
2023/08/09 09:26:53;;;;;;;4.53;4.00;;;18.90;92.80;;;;;;10361711;28;20413;-65
2023/08/09 09:31:59;;;;;;;4.32;3.90;;;19.00;92.60;;;;;;10360421;28;20487;-64
2023/08/09 09:36:59;;;;;;;4.35;3.95;;;19.10;92.40;;;;;;10352434;28;20422;-63
2023/08/09 09:42:00;;;;;;;4.37;3.97;;;19.10;92.30;;;;;;10357159;28;20412;-64
2023/08/09 09:47:03;;;;;;;4.30;3.90;;;18.70;92.00;;;;;;10353538;28;20953;-64
2023/08/09 09:52:04;;;;;;;4.53;3.87;;;19.20;91.90;;;;;;10355683;28;20426;-64
2023/08/09 09:57:05;;;;;;;4.07;3.67;;;19.30;91.70;;;;;;10355386;28;20423;-63
2023/08/09 10:02:08;;;;;;;4.77;3.90;;;19.30;91.50;;;;;;10356607;28;20413;-65
2023/08/09 10:07:08;;;;;;;4.13;3.72;;;19.30;91.40;;;;;;10354895;28;20419;-64
2023/08/09 10:12:10;;;;;;;3.97;3.58;;;19.40;91.30;;;;;;10340112;28;20427;-63
2023/08/09 10:17:11;;;;;;;4.03;3.58;;;19.50;91.30;;;;;;10353180;28;20451;-63
2023/08/09 10:22:16;;;;;;;4.13;3.60;;;19.40;91.20;;;;;;10338005;28;20419;-64
2023/08/09 10:27:53;;;;;;;4.33;3.70;;;19.50;91.10;;;;;;10337889;28;20405;-64
2023/08/09 10:32:57;;;;;;;4.28;3.47;;;19.50;91.10;;;;;;10358978;28;20765;-64
2023/08/09 10:37:58;;;;;;;3.67;3.30;;;19.50;91.10;;;;;;10351358;28;20419;-62
2023/08/09 10:43:00;;;;;;;3.60;3.23;;;19.60;91.10;;;;;;10355863;28;20566;-64
2023/08/09 10:48:19;;;;;;;4.50;3.47;;;19.60;91.10;;;;;;10343339;28;20431;-63
2023/08/09 10:53:23;;;;;;;4.50;3.87;;;19.70;91.00;;;;;;10346978;28;20444;-63
2023/08/09 10:58:30;;;;;;;3.63;3.30;;;19.70;91.00;;;;;;10352832;28;20412;-64
2023/08/09 11:03:32;;;;;;;3.88;3.20;;;19.70;91.00;;;;;;10352903;28;20411;-64
2023/08/09 11:08:33;;;;;;;4.10;3.30;;;19.80;91.00;;;;;;10367795;28;20447;-64
2023/08/09 11:13:35;;;;;;;3.67;3.10;;;19.80;91.00;;;;;;10363545;28;20444;-64
2023/08/09 11:18:35;;;;;;;4.17;3.30;;;19.90;90.90;;;;;;10339515;28;20417;-64
2023/08/09 11:23:36;;;;;;;3.80;3.20;;;19.90;90.80;;;;;;10357229;28;20420;-63
2023/08/09 11:28:37;;;;;;;4.63;3.20;;;20.00;90.80;;;;;;10366809;28;20453;-64
2023/08/09 11:33:39;;;;;;;4.32;3.10;;;20.00;90.80;;;;;;10363248;28;20404;-64
2023/08/09 11:38:39;;;;;;;3.22;2.90;;;20.00;90.70;;;;;;10358324;28;20416;-63
2023/08/09 11:43:40;;;;;;;3.30;2.93;;;20.10;90.70;;;;;;10359372;28;20683;-64
2023/08/09 11:48:41;;;;;;;3.60;2.93;;;20.10;90.70;;;;;;10346769;28;20468;-64
2023/08/09 11:53:44;;;;;;;3.20;2.90;;;20.10;90.70;;;;;;10365883;28;20504;-64
2023/08/09 11:58:46;;;;;;;3.22;2.92;;;20.20;90.60;;;;;;10362762;28;20424;-64
2023/08/09 12:04:08;;;;;;;3.40;2.92;;;20.20;90.60;;;;;;10342995;28;20403;-66
2023/08/09 12:09:24;;;;;;;3.10;2.80;;;20.30;90.60;;;;;;10356967;28;20459;-63
2023/08/09 12:14:25;;;;;;;3.37;2.73;;;20.30;90.50;;;;;;10350643;28;20416;-64
2023/08/09 12:19:26;;;;;;;3.83;2.70;;;20.40;90.50;;;;;;10350606;28;20424;-65
2023/08/09 12:24:27;;;;;;;3.63;2.63;;;20.40;90.50;;;;;;10356423;28;20416;-64
2023/08/09 12:29:28;;;;;;;2.90;2.60;;;20.40;90.50;;;;;;10339854;28;20487;-65
2023/08/09 12:34:29;;;;;;;3.08;2.50;;;20.40;90.50;;;;;;10361267;28;20418;-65
2023/08/09 12:39:30;;;;;;;2.70;2.40;;;20.50;90.50;;;;;;10359461;28;20430;-64
2023/08/09 12:44:32;;;;;;;3.30;2.50;;;20.50;90.40;;;;;;10363369;28;20404;-64
2023/08/09 12:49:33;;;;;;;3.55;2.33;;;20.60;90.40;;;;;;10362570;28;20436;-64
2023/08/09 12:54:33;;;;;;;2.80;2.58;;;20.60;90.40;;;;;;10354970;28;20511;-64
2023/08/09 12:59:34;;;;;;;3.73;2.40;;;20.60;90.50;;;;;;10362032;28;20427;-64
2023/08/09 13:04:34;;;;;;;3.07;2.50;;;20.60;90.50;;;;;;10355526;28;21516;-65
2023/08/09 13:09:36;;;;;;;3.60;2.30;;;20.70;90.40;;;;;;10357223;28;20545;-63
2023/08/09 13:14:37;;;;;;;3.15;2.22;;;20.80;90.50;;;;;;10358912;28;20782;-65
2023/08/09 13:19:38;;;;;;;2.37;2.00;;;20.90;90.60;;;;;;10357185;28;20505;-64
2023/08/09 13:24:38;;;;;;;2.60;2.13;;;21.00;90.50;;;;;;10359178;28;20930;-65
2023/08/09 13:29:39;;;;;;;2.53;2.17;;;21.10;90.60;;;;;;10337561;28;20419;-64
2023/08/09 13:34:41;;;;;;;3.75;2.30;;;21.10;90.40;;;;;;10356927;28;20423;-64
2023/08/09 13:39:41;;;;;;;2.80;2.17;;;21.20;90.50;;;;;;10357756;28;20448;-65
2023/08/09 13:44:42;;;;;;;2.28;2.08;;;21.20;90.20;;;;;;10364067;28;20470;-65
2023/08/09 13:49:43;;;;;;;2.83;2.00;;;21.30;90.30;;;;;;10342869;28;20409;-65
2023/08/09 13:54:44;;;;;;;2.95;1.95;;;21.40;90.10;;;;;;10351151;28;20971;-65
2023/08/09 13:59:44;;;;;;;2.73;2.03;;;21.50;90.10;;;;;;10360386;28;20424;-65
2023/08/09 14:04:45;;;;;;;3.15;2.20;;;21.50;90.00;;;;;;10353725;28;20495;-65
2023/08/09 14:09:45;;;;;;;3.15;1.88;;;21.70;89.90;;;;;;10348454;28;20420;-64
2023/08/09 14:14:46;;;;;;;2.38;1.80;;;21.80;89.50;;;;;;10354581;28;20423;-65
2023/08/09 14:19:47;;;;;;;3.20;1.73;;;21.80;89.10;;;;;;10356899;28;20412;-65
2023/08/09 14:24:47;;;;;;;2.05;1.80;;;21.90;89.20;;;;;;10350539;28;20446;-65
2023/08/09 14:29:48;;;;;;;3.90;1.80;;;22.00;89.20;;;;;;10354664;28;20503;-65
2023/08/09 14:34:48;;;;;;;2.97;1.80;;;22.10;89.00;;;;;;10355891;28;20416;-65
2023/08/09 14:39:49;;;;;;;2.40;1.80;;;22.20;88.90;;;;;;10358422;28;20412;-66
2023/08/09 14:44:50;;;;;;;3.30;1.87;;;22.30;88.80;;;;;;10366349;28;20504;-64
2023/08/09 14:49:50;;;;;;;2.27;1.70;;;22.40;88.80;;;;;;10374377;28;20454;-65
2023/08/09 14:54:51;;;;;;;2.77;1.90;;;22.50;88.60;;;;;;10367540;28;20423;-66
2023/08/09 14:59:52;;;;;;;2.23;1.90;;;22.50;88.90;;;;;;10352838;28;20967;-65
2023/08/09 15:04:52;;;;;;;3.10;1.90;;;22.40;88.80;;;;;;10362085;28;20416;-65
2023/08/09 15:09:53;;;;;;;2.37;1.70;;;22.50;88.90;;;;;;10372249;28;20416;-66
2023/08/09 15:14:55;;;;;;;2.47;1.80;;;22.50;88.80;;;;;;10347331;28;20418;-66
2023/08/09 15:19:56;;;;;;;2.60;1.87;;;22.60;89.00;;;;;;10364412;28;20413;-66
2023/08/09 15:24:58;;;;;;;5.30;1.90;;;22.60;89.90;;;;;;10367975;28;20896;-66
2023/08/09 15:29:59;;;;;;;2.80;1.77;;;22.60;89.20;;;;;;10366737;28;20433;-66
2023/08/09 15:34:59;;;;;;;5.37;2.10;;;22.50;89.00;;;;;;10369597;28;20440;-66
2023/08/09 15:40:00;;;;;;;3.17;1.47;;;22.50;89.40;;;;;;10372169;28;20511;-68
2023/08/09 15:45:01;;;;;;;2.70;1.23;;;22.60;86.10;;;;;;10351450;28;20541;-69
2023/08/09 15:50:02;;;;;;;4.00;1.27;;;22.70;81.20;;;;;;10369829;28;20427;-68
2023/08/09 15:55:03;;;;;;;4.45;1.38;;;22.80;79.60;;;;;;10358812;28;20425;-67
2023/08/09 16:00:04;;;;;;;4.70;1.50;;;22.80;76.70;;;;;;10359262;28;20427;-69
2023/08/09 16:05:05;;;;;;;5.60;1.75;;;22.80;78.00;;;;;;10358754;28;20420;-68
2023/08/09 16:10:11;;;;;;;4.90;2.37;;;22.70;78.90;;;;;;10354953;28;20411;-68
2023/08/09 16:15:13;;;;;;;5.03;2.10;;;22.60;79.50;;;;;;10340692;28;20402;-68
2023/08/09 16:20:13;;;;;;;6.65;2.00;;;22.40;80.00;;;;;;10350181;28;20440;-67
2023/08/09 16:25:14;;;;;;;4.95;1.60;;;22.10;80.40;;;;;;10358315;28;20507;-68
2023/08/09 16:30:15;;;;;;;5.43;1.73;;;21.90;80.50;;;;;;10363324;28;20736;-67
2023/08/09 16:35:15;;;;;;;4.63;1.83;;;21.70;81.10;;;;;;10339260;28;20829;-68
2023/08/09 16:40:16;;;;;;;7.20;1.85;;;21.70;81.50;;;;;;10355922;28;20417;-67
2023/08/09 16:45:17;;;;;;;4.72;1.50;;;21.50;81.90;;;;;;10357590;28;20437;-67
2023/08/09 16:50:17;;;;;;;4.43;1.47;;;21.40;81.50;;;;;;10359792;28;20724;-68
2023/08/09 16:55:21;;;;;;;4.93;1.60;;;21.30;81.00;;;;;;10341456;28;20934;-67
2023/08/09 17:00:22;;;;;;;4.13;1.40;;;21.10;81.50;;;;;;10354251;28;20416;-67
2023/08/09 17:05:23;;;;;;;7.53;2.30;;;21.00;81.50;;;;;;10358043;28;20411;-68
2023/08/09 17:10:26;;;;;;;4.43;1.40;;;21.00;81.70;;;;;;10354445;28;20932;-69
2023/08/09 17:15:27;;;;;;;3.90;1.20;;;20.90;81.50;;;;;;10350020;28;20886;-68
2023/08/09 17:20:27;;;;;;;5.53;1.40;;;20.70;81.30;;;;;;10356865;28;20401;-69
2023/08/09 17:25:28;;;;;;;3.45;1.40;;;20.70;82.30;;;;;;10352204;28;20397;-68
2023/08/09 17:30:29;;;;;;;4.07;1.50;;;20.60;82.30;;;;;;10354466;28;20412;-68
2023/08/09 17:35:30;;;;;;;4.73;1.37;;;20.50;82.90;;;;;;10350101;28;20418;-67
2023/08/09 17:40:30;;;;;;;3.70;1.27;;;20.60;83.50;;;;;;10354321;28;20409;-69
2023/08/09 17:45:31;;;;;;;5.00;1.20;;;20.60;83.00;;;;;;10360353;28;20416;-67
2023/08/09 17:50:32;;;;;;;3.20;1.40;;;20.50;83.10;;;;;;10356259;28;20434;-67
2023/08/09 17:55:33;;;;;;;5.45;1.70;;;20.40;83.40;;;;;;10333671;28;20421;-67
2023/08/09 18:00:33;;;;;;;5.00;1.33;;;20.20;83.60;;;;;;10349374;28;20406;-67
2023/08/09 18:05:34;;;;;;;3.67;1.35;;;20.20;84.00;;;;;;10340036;28;20424;-66
2023/08/09 18:10:34;;;;;;;6.15;1.60;;;20.20;85.20;;;;;;10345183;28;20410;-66
2023/08/09 18:15:35;;;;;;;3.72;1.38;;;20.40;85.20;;;;;;10348744;28;20409;-66
2023/08/09 18:20:36;;;;;;;5.15;1.60;;;20.60;85.00;;;;;;10339120;28;20920;-66
2023/08/09 18:25:42;;;;;;;4.90;1.55;;;20.70;84.60;;;;;;10353778;28;20496;-66
2023/08/09 18:30:44;;;;;;;4.07;1.48;;;20.90;84.60;;;;;;10352165;28;20416;-65
2023/08/09 18:35:44;;;;;;;3.83;1.40;;;20.90;84.60;;;;;;10356728;28;20916;-66
2023/08/09 18:40:45;;;;;;;5.33;2.10;;;21.00;84.60;;;;;;10349435;28;20416;-65
2023/08/09 18:45:46;;;;;;;4.73;1.83;;;21.00;84.70;;;;;;10354427;28;20419;-65
2023/08/09 18:50:46;;;;;;;3.40;1.75;;;21.10;85.00;;;;;;10340688;28;20458;-66
2023/08/09 18:55:48;;;;;;;4.05;1.63;;;21.10;85.10;;;;;;10358971;28;20417;-66
2023/08/09 19:00:50;;;;;;;4.93;1.63;;;21.10;85.40;;;;;;10334718;28;20431;-65
2023/08/09 19:05:51;;;;;;;3.22;1.70;;;21.10;85.60;;;;;;10352846;28;20418;-66
2023/08/09 19:10:52;;;;;;;4.70;1.90;;;21.00;85.70;;;;;;10358555;28;20405;-66
2023/08/09 19:15:54;;;;;;;3.60;1.90;;;21.10;85.90;;;;;;10352758;28;20728;-66
2023/08/09 19:20:55;;;;;;;3.60;1.60;;;21.00;86.00;;;;;;10330850;28;20417;-65
2023/08/09 19:25:56;;;;;;;3.55;1.70;;;21.00;86.20;;;;;;10350829;28;20773;-65
2023/08/09 19:30:59;;;;;;;5.33;1.90;;;21.00;86.30;;;;;;10351218;28;20420;-66
2023/08/09 19:36:01;;;;;;;4.10;1.65;;;21.00;86.40;;;;;;10363463;28;20420;-66
2023/08/09 19:41:02;;;;;;;3.38;1.80;;;21.00;86.50;;;;;;10364883;28;20411;-66
2023/08/09 19:46:02;;;;;;;3.70;1.60;;;20.90;86.60;;;;;;10363144;28;20811;-66
2023/08/09 19:51:03;;;;;;;2.30;1.70;;;20.90;86.70;;;;;;10366167;28;20921;-66
2023/08/09 19:56:05;;;;;;;3.83;1.92;;;20.90;86.80;;;;;;10362138;28;20414;-66
2023/08/09 20:01:08;;;;;;;3.35;1.88;;;20.90;86.90;;;;;;10361501;28;20593;-66
2023/08/09 20:06:09;;;;;;;3.90;1.80;;;20.90;86.90;;;;;;10357537;28;20525;-65
2023/08/09 20:11:10;;;;;;;4.20;1.80;;;20.80;86.90;;;;;;10359214;28;20454;-66
2023/08/09 20:16:11;;;;;;;2.80;1.30;;;20.80;87.00;;;;;;10355952;28;20812;-66
2023/08/09 20:21:12;;;;;;;2.70;1.77;;;20.80;87.00;;;;;;10363181;28;20413;-66
2023/08/09 20:26:12;;;;;;;2.77;1.57;;;20.80;87.10;;;;;;10368282;28;20408;-65
2023/08/09 20:31:13;;;;;;;3.27;1.70;;;20.70;87.10;;;;;;10346951;28;20600;-66
2023/08/09 20:36:14;;;;;;;4.00;1.70;;;20.70;87.10;;;;;;10358586;28;20426;-65
2023/08/09 20:41:15;;;;;;;3.17;1.80;;;20.80;87.30;;;;;;10345935;28;20900;-65
2023/08/09 20:46:15;;;;;;;3.08;1.80;;;20.70;87.40;;;;;;10361125;28;20788;-66
2023/08/09 20:51:16;;;;;;;3.28;1.67;;;20.60;87.40;;;;;;10342957;28;20401;-66
2023/08/09 20:56:17;;;;;;;3.58;2.00;;;20.60;87.50;;;;;;10363610;28;20935;-65
2023/08/09 21:01:18;;;;;;;4.22;1.98;;;20.50;87.50;;;;;;10357053;28;20472;-65
2023/08/09 21:06:20;;;;;;;2.77;1.90;;;20.50;87.60;;;;;;10358109;28;20497;-66
2023/08/09 21:11:20;;;;;;;3.40;2.10;;;20.50;87.70;;;;;;10354973;28;20432;-66
2023/08/09 21:16:21;;;;;;;4.00;2.10;;;20.40;87.80;;;;;;10357603;28;20954;-66
2023/08/09 21:21:22;;;;;;;3.88;2.00;;;20.40;87.80;;;;;;10356521;28;20409;-65
2023/08/09 21:26:23;;;;;;;3.50;2.13;;;20.40;87.90;;;;;;10334486;28;20901;-65
2023/08/09 21:31:23;;;;;;;3.90;2.30;;;20.40;88.00;;;;;;10357753;28;20401;-66
2023/08/09 21:36:24;;;;;;;4.30;2.20;;;20.30;88.10;;;;;;10353301;28;20905;-65
2023/08/09 21:41:25;;;;;;;3.70;2.00;;;19.80;87.90;;;;;;10350148;28;20515;-65
2023/08/09 21:46:26;;;;;;;3.60;2.15;;;20.40;88.30;;;;;;10333717;28;20428;-66
2023/08/09 21:51:26;;;;;;;5.30;2.40;;;20.30;88.40;;;;;;10355232;28;20416;-65
2023/08/09 21:56:27;;;;;;;4.57;2.13;;;20.30;88.50;;;;;;10349560;28;20704;-66
2023/08/09 22:01:27;;;;;;;4.30;2.30;;;20.30;88.50;;;;;;10353167;28;20416;-66
2023/08/09 22:06:28;;;;;;;2.87;2.10;;;20.20;88.60;;;;;;10357483;28;20757;-66
2023/08/09 22:11:29;;;;;;;3.83;2.23;;;20.20;88.70;;;;;;10356414;28;20404;-66
2023/08/09 22:16:29;;;;;;;4.40;2.33;;;20.20;88.80;;;;;;10353039;28;20417;-65
2023/08/09 22:21:30;;;;;;;4.13;2.40;;;20.20;88.90;;;;;;10353471;28;20404;-65
2023/08/09 22:26:31;;;;;;;3.70;2.33;;;20.10;88.90;;;;;;10354459;28;20495;-66
2023/08/09 22:31:31;;;;;;;4.30;2.30;;;20.20;89.10;;;;;;10351999;28;20491;-66
2023/08/09 22:36:32;;;;;;;4.68;2.25;;;20.10;89.10;;;;;;10358338;28;20836;-66
2023/08/09 22:41:33;;;;;;;4.13;2.60;;;20.10;89.10;;;;;;10352422;28;20401;-65
2023/08/09 22:46:33;;;;;;;4.25;2.25;;;20.10;89.10;;;;;;10356535;28;20431;-66
2023/08/09 22:51:34;;;;;;;4.95;2.53;;;20.10;89.20;;;;;;10356532;28;20415;-67
2023/08/09 22:56:35;;;;;;;3.58;2.38;;;20.00;89.20;;;;;;10353315;28;20416;-66
2023/08/09 23:01:37;;;;;;;4.80;2.43;;;20.00;89.20;;;;;;10358762;28;20442;-66
2023/08/09 23:06:38;;;;;;;4.32;2.50;;;20.00;89.20;;;;;;10358849;28;20419;-66
2023/08/09 23:11:39;;;;;;;4.80;2.40;;;20.00;89.40;;;;;;10345667;28;20401;-66
2023/08/09 23:16:39;;;;;;;4.60;2.50;;;20.00;89.40;;;;;;10360978;28;21038;-66
2023/08/09 23:21:40;;;;;;;5.63;2.50;;;20.00;89.40;;;;;;10343302;28;20927;-66
2023/08/09 23:26:41;;;;;;;4.60;2.50;;;20.00;89.50;;;;;;10337439;28;20758;-66
2023/08/09 23:31:42;;;;;;;5.00;2.97;;;20.00;89.40;;;;;;10363690;28;20407;-66
2023/08/09 23:36:43;;;;;;;4.30;2.60;;;19.90;89.30;;;;;;10334175;28;20420;-66
2023/08/09 23:41:44;;;;;;;4.60;2.40;;;19.90;89.50;;;;;;10359976;28;20408;-66
2023/08/09 23:46:44;;;;;;;4.60;2.50;;;19.90;89.50;;;;;;10353019;28;20418;-66
2023/08/09 23:51:45;;;;;;;4.88;2.33;;;19.90;89.60;;;;;;10357357;28;20467;-66
2023/08/09 23:56:46;;;;;;;4.53;2.20;;;19.90;89.70;;;;;;10356333;28;20985;-66
